createdAt,value
2022-11-30T00:02:32.772Z,35.17
2022-11-30T00:05:19.002Z,31.60
2022-11-30T00:08:06.994Z,38.43
2022-11-30T00:10:54.800Z,39.30
2022-11-30T00:13:40.608Z,41.13
2022-11-30T00:16:27.687Z,31.80
2022-11-30T00:19:15.570Z,36.93
2022-11-30T00:22:00.723Z,34.60
2022-11-30T00:24:46.585Z,37.00
2022-11-30T00:27:33.906Z,48.67
2022-11-30T00:30:19.503Z,37.57
2022-11-30T00:33:04.790Z,40.03
2022-11-30T00:36:00.311Z,33.27
2022-11-30T00:38:47.584Z,38.73
2022-11-30T00:41:32.883Z,34.23
2022-11-30T00:44:18.276Z,34.03
2022-11-30T00:47:03.918Z,32.50
2022-11-30T00:49:52.302Z,36.13
2022-11-30T00:52:37.542Z,35.17
2022-11-30T00:55:23.098Z,40.97
2022-11-30T00:58:10.651Z,34.30
2022-11-30T01:00:56.233Z,40.00
2022-11-30T01:03:41.726Z,35.20
2022-11-30T01:06:28.701Z,46.57
2022-11-30T01:09:14.214Z,37.33
2022-11-30T01:11:59.363Z,41.53
2022-11-30T01:14:45.749Z,34.23
2022-11-30T01:17:31.631Z,36.80
2022-11-30T01:20:19.860Z,34.40
2022-11-30T01:23:07.674Z,40.00
2022-11-30T01:25:56.534Z,40.40
2022-11-30T01:28:44.059Z,44.30
2022-11-30T01:31:32.698Z,35.53
2022-11-30T01:34:20.017Z,36.33
2022-11-30T01:37:05.434Z,38.07
2022-11-30T01:39:55.078Z,35.97
2022-11-30T01:42:46.784Z,44.10
2022-11-30T01:45:32.362Z,37.40
2022-11-30T01:48:20.038Z,43.10
2022-11-30T01:51:08.358Z,39.50
2022-11-30T01:53:55.571Z,38.23
2022-11-30T01:56:52.345Z,42.80
2022-11-30T01:59:38.027Z,38.63
2022-11-30T02:02:32.929Z,39.20
2022-11-30T02:05:19.109Z,40.23
2022-11-30T02:08:08.014Z,38.30
2022-11-30T02:11:03.340Z,42.53
2022-11-30T02:14:13.995Z,37.30
2022-11-30T02:17:40.769Z,36.70
2022-11-30T02:20:41.785Z,41.77
2022-11-30T02:23:41.604Z,39.30
2022-11-30T02:26:52.955Z,34.03
2022-11-30T02:29:43.500Z,33.90
2022-11-30T02:32:37.115Z,37.00
2022-11-30T02:35:27.470Z,37.67
2022-11-30T02:38:14.178Z,40.57
2022-11-30T02:40:59.505Z,43.90
2022-11-30T02:43:45.433Z,44.17
2022-11-30T02:46:53.059Z,36.37
2022-11-30T02:49:50.120Z,32.50
2022-11-30T02:52:36.123Z,37.17
2022-11-30T02:55:22.024Z,38.30
2022-11-30T02:58:12.484Z,38.60
2022-11-30T03:00:57.836Z,43.23
2022-11-30T03:03:44.830Z,39.53
2022-11-30T03:06:30.130Z,38.20
2022-11-30T03:09:16.061Z,41.77
2022-11-30T03:12:05.797Z,35.23
2022-11-30T03:14:53.222Z,47.40
2022-11-30T03:17:40.749Z,33.17
2022-11-30T03:20:28.560Z,35.33
2022-11-30T03:23:15.978Z,39.77
2022-11-30T03:26:01.945Z,44.33
2022-11-30T03:28:49.649Z,34.77
2022-11-30T03:31:37.114Z,37.60
2022-11-30T03:34:27.331Z,35.10
2022-11-30T03:37:12.811Z,50.93
2022-11-30T03:40:00.552Z,39.43
2022-11-30T03:42:46.445Z,46.27
2022-11-30T03:45:32.055Z,39.53
2022-11-30T03:48:17.632Z,39.20
2022-11-30T03:51:04.317Z,36.83
2022-11-30T03:53:49.802Z,41.17
2022-11-30T03:56:35.028Z,43.03
2022-11-30T03:59:20.570Z,37.13
2022-11-30T04:02:06.478Z,44.00
2022-11-30T04:04:54.364Z,40.23
2022-11-30T04:07:39.661Z,38.60
2022-11-30T04:10:25.425Z,39.80
2022-11-30T04:13:10.674Z,38.53
2022-11-30T04:15:56.538Z,43.37
2022-11-30T04:18:41.963Z,39.90
2022-11-30T04:21:32.339Z,39.33
2022-11-30T04:24:17.796Z,42.80
2022-11-30T04:27:03.587Z,38.37
2022-11-30T04:29:49.229Z,42.73
2022-11-30T04:32:36.653Z,36.73
2022-11-30T04:35:23.910Z,40.93
2022-11-30T04:38:09.309Z,42.40
2022-11-30T04:40:54.899Z,37.47
2022-11-30T04:43:40.438Z,41.30
2022-11-30T04:46:25.691Z,39.33
2022-11-30T04:49:15.670Z,43.13
2022-11-30T04:52:05.404Z,39.83
2022-11-30T04:54:53.478Z,35.97
2022-11-30T04:57:38.756Z,46.20
2022-11-30T05:00:24.736Z,47.40
2022-11-30T05:03:09.950Z,35.70
2022-11-30T05:05:55.770Z,35.93
2022-11-30T05:08:43.011Z,40.33
2022-11-30T05:11:28.431Z,43.10
2022-11-30T05:14:16.617Z,36.43
2022-11-30T05:17:01.972Z,38.90
2022-11-30T05:19:50.549Z,41.17
2022-11-30T05:22:40.466Z,40.80
2022-11-30T05:25:25.817Z,39.30
2022-11-30T05:28:11.636Z,44.70
2022-11-30T05:31:03.923Z,42.50
2022-11-30T05:33:53.642Z,45.90
2022-11-30T05:36:39.123Z,38.73
2022-11-30T05:39:26.678Z,38.03
2022-11-30T05:42:11.962Z,39.60
2022-11-30T05:44:57.444Z,38.70
2022-11-30T05:47:42.934Z,37.87
2022-11-30T05:50:28.339Z,45.87
2022-11-30T05:53:13.694Z,42.10
2022-11-30T05:56:06.602Z,47.80
2022-11-30T05:58:51.798Z,45.23
2022-11-30T06:01:40.377Z,38.30
2022-11-30T06:04:26.732Z,42.53
2022-11-30T06:07:12.061Z,43.10
2022-11-30T06:09:57.890Z,39.47
2022-11-30T06:12:43.082Z,42.83
2022-11-30T06:15:28.487Z,40.17
2022-11-30T06:18:14.303Z,47.97
2022-11-30T06:21:05.737Z,36.60
2022-11-30T06:23:51.656Z,38.77
2022-11-30T06:26:37.148Z,39.20
2022-11-30T06:29:22.719Z,42.83
2022-11-30T06:32:08.714Z,35.17
2022-11-30T06:34:54.166Z,40.93
2022-11-30T06:37:40.089Z,39.43
2022-11-30T06:40:27.698Z,41.83
2022-11-30T06:43:15.458Z,34.27
2022-11-30T06:46:02.826Z,44.00
2022-11-30T06:48:50.827Z,40.77
2022-11-30T06:51:39.732Z,36.77
2022-11-30T06:54:25.277Z,42.20
2022-11-30T06:57:10.783Z,44.40
2022-11-30T06:59:57.074Z,32.93
2022-11-30T07:02:42.377Z,36.63
2022-11-30T07:05:28.538Z,36.60
2022-11-30T07:08:15.561Z,36.43
2022-11-30T07:11:04.863Z,36.30
2022-11-30T07:13:50.288Z,35.10
2022-11-30T07:16:40.434Z,39.50
2022-11-30T07:19:26.144Z,36.50
2022-11-30T07:22:14.521Z,40.80
2022-11-30T07:25:18.574Z,36.50
2022-11-30T07:28:04.076Z,39.10
2022-11-30T07:30:49.585Z,44.60
2022-11-30T07:33:35.081Z,36.57
2022-11-30T07:36:22.105Z,36.17
2022-11-30T07:39:10.174Z,40.50
2022-11-30T07:41:55.427Z,43.33
2022-11-30T07:44:43.031Z,38.77
2022-11-30T07:47:28.366Z,34.57
2022-11-30T07:50:13.733Z,39.47
2022-11-30T07:52:59.091Z,36.33
2022-11-30T07:55:47.830Z,35.93
2022-11-30T07:58:38.558Z,36.33
2022-11-30T08:01:27.973Z,38.13
2022-11-30T08:04:14.064Z,55.17
2022-11-30T08:06:59.457Z,30.70
2022-11-30T08:09:45.207Z,33.87
2022-11-30T08:12:30.424Z,32.63
2022-11-30T08:15:20.314Z,38.67
2022-11-30T08:18:07.191Z,41.33
2022-11-30T08:21:04.514Z,37.23
2022-11-30T08:23:57.597Z,34.07
2022-11-30T08:26:45.396Z,39.27
2022-11-30T08:29:30.533Z,40.63
2022-11-30T08:32:18.677Z,40.67
2022-11-30T08:35:04.513Z,34.63
2022-11-30T08:37:49.747Z,40.83
2022-11-30T08:40:35.226Z,36.13
2022-11-30T08:43:20.701Z,40.43
2022-11-30T08:49:24.412Z,33.80
2022-11-30T08:52:17.953Z,34.23
2022-11-30T08:55:04.107Z,34.07
2022-11-30T08:57:49.279Z,38.33
2022-11-30T09:00:34.959Z,34.20
2022-11-30T09:03:20.488Z,37.23
2022-11-30T09:06:18.083Z,35.53
2022-11-30T09:09:03.449Z,37.73
2022-11-30T09:11:48.856Z,38.13
2022-11-30T09:14:34.448Z,40.37
2022-11-30T09:17:22.359Z,38.93
2022-11-30T09:20:10.825Z,35.20
2022-11-30T09:22:59.090Z,30.33
2022-11-30T09:25:44.257Z,38.93
2022-11-30T09:28:33.286Z,32.80
2022-11-30T09:31:23.652Z,40.93
2022-11-30T09:34:12.034Z,33.47
2022-11-30T09:36:57.627Z,31.97
2022-11-30T09:39:45.402Z,36.00
2022-11-30T09:43:00.133Z,29.90
2022-11-30T09:45:55.715Z,33.40
2022-11-30T09:48:54.339Z,36.17
2022-11-30T09:51:46.486Z,33.80
2022-11-30T09:54:41.424Z,34.43
2022-11-30T09:57:31.839Z,31.87
2022-11-30T10:00:24.101Z,37.63
2022-11-30T10:03:12.291Z,35.07
2022-11-30T10:06:08.479Z,33.23
2022-11-30T10:09:16.809Z,40.37
2022-11-30T10:12:36.417Z,36.73
2022-11-30T10:15:47.035Z,35.87
2022-11-30T10:18:35.383Z,30.20
2022-11-30T10:21:45.011Z,33.70
2022-11-30T10:24:49.506Z,38.37
2022-11-30T10:27:51.363Z,33.20
2022-11-30T10:30:37.408Z,30.70
2022-11-30T10:33:38.378Z,35.63
2022-11-30T10:36:27.766Z,33.93
2022-11-30T10:39:34.102Z,29.47
2022-11-30T10:42:30.762Z,29.70
2022-11-30T10:45:24.362Z,33.90
2022-11-30T10:48:31.171Z,30.77
2022-11-30T10:51:17.425Z,33.53
2022-11-30T10:54:15.209Z,34.10
2022-11-30T10:57:05.581Z,30.87
2022-11-30T10:59:57.654Z,35.20
2022-11-30T11:02:50.714Z,40.33
2022-11-30T11:05:37.124Z,35.60
2022-11-30T11:08:26.068Z,40.30
2022-11-30T11:11:34.578Z,32.00
2022-11-30T11:14:25.630Z,38.40
2022-11-30T11:17:20.603Z,29.07
2022-11-30T11:20:29.899Z,36.83
2022-11-30T11:23:27.291Z,30.60
2022-11-30T11:26:27.863Z,30.23
2022-11-30T11:29:32.881Z,36.07
2022-11-30T11:32:24.887Z,34.70
2022-11-30T11:35:37.757Z,34.60
2022-11-30T11:38:43.832Z,34.30
2022-11-30T11:41:33.842Z,38.23
2022-11-30T11:44:22.361Z,37.43
2022-11-30T11:47:20.795Z,33.50
2022-11-30T11:50:50.250Z,30.73
2022-11-30T11:53:53.673Z,35.37
2022-11-30T11:56:39.346Z,29.57
2022-11-30T11:59:38.973Z,34.80
2022-11-30T12:02:39.866Z,40.13
2022-11-30T12:05:37.192Z,35.47
2022-11-30T12:08:33.493Z,36.27
2022-11-30T12:11:21.498Z,35.13
2022-11-30T12:14:14.126Z,37.53
2022-11-30T12:17:05.459Z,37.80
2022-11-30T12:20:15.007Z,35.30
2022-11-30T12:23:21.982Z,34.50
2022-11-30T12:26:41.706Z,34.70
2022-11-30T12:30:06.326Z,33.37
2022-11-30T12:33:14.910Z,38.97
2022-11-30T12:36:35.111Z,38.20
2022-11-30T12:39:49.163Z,40.27
2022-11-30T12:42:42.607Z,39.00
2022-11-30T12:45:30.220Z,47.47
2022-11-30T12:48:28.625Z,45.40
2022-11-30T12:51:47.164Z,50.83
2022-11-30T12:54:54.865Z,40.27
2022-11-30T12:58:00.825Z,47.70
2022-11-30T13:01:11.139Z,45.70
2022-11-30T13:04:14.465Z,42.10
2022-11-30T13:07:21.646Z,42.90
2022-11-30T13:10:17.184Z,44.57
2022-11-30T13:13:04.553Z,41.03
2022-11-30T13:15:50.056Z,44.07
2022-11-30T13:18:37.404Z,43.13
2022-11-30T13:21:34.853Z,40.13
2022-11-30T13:24:28.809Z,43.33
2022-11-30T13:27:37.750Z,35.70
2022-11-30T13:30:30.857Z,38.73
2022-11-30T13:33:34.901Z,50.60
2022-11-30T13:36:49.826Z,43.30
2022-11-30T13:39:48.639Z,43.20
2022-11-30T13:42:43.898Z,43.63
2022-11-30T13:45:36.458Z,44.50
2022-11-30T13:48:41.944Z,43.13
2022-11-30T13:51:39.341Z,44.63
2022-11-30T13:54:50.797Z,48.27
2022-11-30T13:57:56.787Z,46.17
2022-11-30T14:00:42.757Z,43.90
2022-11-30T14:03:33.236Z,52.97
2022-11-30T14:06:43.862Z,42.57
2022-11-30T14:09:45.355Z,50.90
2022-11-30T14:12:37.588Z,50.53
2022-11-30T14:15:50.790Z,45.00
2022-11-30T14:18:46.755Z,54.10
2022-11-30T14:21:34.523Z,55.73
2022-11-30T14:24:22.949Z,50.63
2022-11-30T14:27:17.407Z,51.73
2022-11-30T14:30:04.304Z,55.33
2022-11-30T14:32:57.281Z,47.90
2022-11-30T14:35:44.142Z,49.63
2022-11-30T14:38:31.368Z,54.60
2022-11-30T14:41:30.576Z,48.40
2022-11-30T14:44:16.242Z,50.30
2022-11-30T14:47:26.657Z,55.40
2022-11-30T14:50:23.082Z,63.30
2022-11-30T14:53:25.535Z,56.57
2022-11-30T14:56:26.808Z,52.53
2022-11-30T14:59:33.312Z,59.93
2022-11-30T15:02:39.027Z,64.70
2022-11-30T15:05:28.851Z,55.40
2022-11-30T15:08:16.553Z,43.80
2022-11-30T15:11:07.437Z,47.37
2022-11-30T15:14:06.583Z,46.27
2022-11-30T15:16:55.020Z,53.93
2022-11-30T15:19:48.557Z,57.70
2022-11-30T15:22:35.244Z,57.60
2022-11-30T15:25:22.959Z,49.97
2022-11-30T15:28:15.120Z,54.50
2022-11-30T15:31:04.842Z,54.60
2022-11-30T15:33:50.995Z,46.67
2022-11-30T15:36:38.281Z,60.73
2022-11-30T15:39:28.945Z,55.03
2022-11-30T15:42:41.361Z,53.53
2022-11-30T15:45:30.542Z,49.77
2022-11-30T15:48:38.562Z,42.77
2022-11-30T15:51:24.606Z,51.53
2022-11-30T15:54:09.933Z,50.30
2022-11-30T15:57:07.455Z,53.73
2022-11-30T16:00:15.167Z,52.60
2022-11-30T16:03:12.680Z,55.93
2022-11-30T16:06:05.985Z,51.33
2022-11-30T16:08:52.102Z,58.07
2022-11-30T16:11:39.894Z,55.97
2022-11-30T16:14:28.146Z,50.10
2022-11-30T16:17:13.600Z,52.40
2022-11-30T16:19:59.211Z,52.37
2022-11-30T16:22:49.317Z,53.77
2022-11-30T16:25:34.700Z,59.53
2022-11-30T16:28:24.005Z,47.13
2022-11-30T16:31:19.495Z,50.73
2022-11-30T16:34:08.735Z,53.00
2022-11-30T16:36:54.251Z,46.50
2022-11-30T16:39:39.800Z,52.47
2022-11-30T16:42:25.427Z,54.83
2022-11-30T16:45:18.879Z,54.77
2022-11-30T16:48:05.414Z,53.50
2022-11-30T16:50:54.127Z,40.60
2022-11-30T16:53:39.442Z,49.63
2022-11-30T16:56:27.194Z,48.40
2022-11-30T16:59:17.075Z,50.80
2022-11-30T17:02:03.902Z,59.80
2022-11-30T17:04:49.483Z,45.47
2022-11-30T17:07:37.729Z,51.60
2022-11-30T17:10:23.688Z,50.90
2022-11-30T17:13:18.042Z,50.40
2022-11-30T17:16:06.039Z,48.07
2022-11-30T17:18:51.338Z,60.00
2022-11-30T17:21:38.982Z,43.57
2022-11-30T17:24:24.619Z,50.47
2022-11-30T17:27:15.182Z,49.60
2022-11-30T17:30:00.525Z,56.13
2022-11-30T17:32:47.876Z,60.03
2022-11-30T17:35:40.904Z,52.07
2022-11-30T17:38:27.666Z,52.33
2022-11-30T17:41:19.235Z,52.37
2022-11-30T17:44:07.069Z,64.73
2022-11-30T17:46:52.508Z,57.53
2022-11-30T17:49:37.890Z,60.23
2022-11-30T17:52:23.686Z,60.13
2022-11-30T17:55:09.469Z,60.93
2022-11-30T17:57:54.809Z,48.93
2022-11-30T18:00:42.545Z,50.40
2022-11-30T18:03:32.480Z,45.67
2022-11-30T18:06:21.870Z,62.80
2022-11-30T18:09:07.269Z,63.30
2022-11-30T18:11:53.088Z,45.73
2022-11-30T18:14:40.964Z,50.80
2022-11-30T18:17:26.142Z,43.90
2022-11-30T18:20:12.212Z,51.37
2022-11-30T18:22:57.902Z,41.50
2022-11-30T18:25:43.464Z,56.83
2022-11-30T18:28:29.388Z,61.20
2022-11-30T18:31:15.048Z,60.93
2022-11-30T18:34:03.587Z,63.03
2022-11-30T18:36:48.908Z,51.30
2022-11-30T18:39:34.447Z,48.13
2022-11-30T18:42:22.672Z,45.47
2022-11-30T18:45:08.849Z,42.43
2022-11-30T18:47:54.114Z,46.87
2022-11-30T18:50:44.433Z,47.17
2022-11-30T18:53:31.734Z,45.50
2022-11-30T18:56:19.562Z,44.57
2022-11-30T18:59:08.061Z,48.53
2022-11-30T19:01:55.412Z,47.83
2022-11-30T19:04:42.950Z,49.30
2022-11-30T19:07:28.836Z,45.50
2022-11-30T19:10:16.943Z,45.70
2022-11-30T19:13:04.172Z,45.00
2022-11-30T19:15:49.419Z,46.37
2022-11-30T19:18:38.308Z,40.57
2022-11-30T19:21:28.941Z,52.77
2022-11-30T19:24:15.805Z,43.77
2022-11-30T19:27:01.237Z,44.63
2022-11-30T19:29:46.841Z,46.37
2022-11-30T19:32:35.947Z,54.40
2022-11-30T19:35:22.960Z,50.20
2022-11-30T19:38:08.434Z,53.30
2022-11-30T19:40:54.008Z,48.50
2022-11-30T19:43:39.754Z,58.87
2022-11-30T19:46:30.602Z,53.43
2022-11-30T19:49:21.266Z,46.40
2022-11-30T19:52:06.609Z,44.23
2022-11-30T19:54:51.876Z,56.97
2022-11-30T19:57:39.679Z,46.40
2022-11-30T20:00:25.400Z,54.27
2022-11-30T20:03:10.918Z,52.17
2022-11-30T20:05:58.726Z,57.23
2022-11-30T20:08:45.019Z,50.80
2022-11-30T20:11:30.421Z,55.70
2022-11-30T20:14:16.879Z,43.20
2022-11-30T20:17:02.281Z,41.00
2022-11-30T20:19:50.187Z,48.87
2022-11-30T20:22:35.581Z,45.63
2022-11-30T20:25:21.208Z,45.33
2022-11-30T20:28:12.291Z,44.50
2022-11-30T20:31:05.921Z,48.37
2022-11-30T20:33:52.083Z,43.67
2022-11-30T20:36:40.114Z,51.77
2022-11-30T20:39:25.527Z,43.47
2022-11-30T20:42:13.588Z,53.73
2022-11-30T20:45:04.341Z,45.77
2022-11-30T20:47:52.036Z,55.47
2022-11-30T20:50:39.881Z,51.73
2022-11-30T20:53:25.033Z,47.50
2022-11-30T20:56:14.283Z,58.53
2022-11-30T20:59:05.944Z,40.83
2022-11-30T21:01:53.550Z,44.93
2022-11-30T21:04:39.249Z,49.07
2022-11-30T21:07:24.962Z,48.57
2022-11-30T21:10:11.012Z,54.37
2022-11-30T21:12:58.593Z,43.77
2022-11-30T21:15:43.821Z,52.93
2022-11-30T21:18:29.814Z,48.63
2022-11-30T21:21:17.801Z,47.23
2022-11-30T21:24:06.550Z,42.67
2022-11-30T21:26:51.933Z,55.13
2022-11-30T21:29:40.038Z,44.53
2022-11-30T21:32:25.458Z,46.10
2022-11-30T21:35:15.127Z,42.03
2022-11-30T21:38:02.517Z,48.33
2022-11-30T21:41:03.029Z,53.63
2022-11-30T21:43:48.588Z,49.63
2022-11-30T21:46:34.565Z,54.17
2022-11-30T21:49:20.726Z,57.50
2022-11-30T21:52:06.050Z,47.50
2022-11-30T21:54:53.536Z,55.23
2022-11-30T21:57:39.192Z,48.27
2022-11-30T22:00:24.831Z,46.97
2022-11-30T22:03:18.129Z,46.27
2022-11-30T22:06:07.289Z,50.20
2022-11-30T22:08:53.589Z,53.90
2022-11-30T22:11:44.149Z,42.17
2022-11-30T22:14:31.811Z,46.53
2022-11-30T22:17:17.751Z,41.53
2022-11-30T22:20:09.355Z,47.67
2022-11-30T22:22:59.326Z,47.80
2022-11-30T22:25:47.161Z,43.40
2022-11-30T22:28:34.573Z,45.17
2022-11-30T22:31:24.541Z,35.40
2022-11-30T22:34:10.719Z,45.17
2022-11-30T22:36:58.156Z,42.77
2022-11-30T22:39:43.458Z,37.43
2022-11-30T22:42:29.374Z,50.43
2022-11-30T22:45:14.964Z,43.93
2022-11-30T22:48:00.507Z,43.83
2022-11-30T22:50:46.200Z,42.30
2022-11-30T22:53:32.316Z,45.80
2022-11-30T22:56:23.213Z,38.93
2022-11-30T22:59:11.406Z,45.17
2022-11-30T23:01:56.891Z,40.83
2022-11-30T23:04:45.355Z,42.07
2022-11-30T23:07:33.345Z,35.87
2022-11-30T23:10:19.162Z,37.13
2022-11-30T23:13:04.676Z,45.90
2022-11-30T23:15:50.918Z,42.87
2022-11-30T23:18:44.477Z,52.80
2022-11-30T23:21:40.322Z,43.17
2022-11-30T23:24:31.577Z,46.03
2022-11-30T23:27:16.829Z,41.60
2022-11-30T23:30:02.193Z,43.53
2022-11-30T23:32:47.654Z,37.33
2022-11-30T23:35:32.984Z,46.07
2022-11-30T23:38:18.737Z,47.43
2022-11-30T23:41:09.656Z,45.30
2022-11-30T23:43:55.584Z,57.10
2022-11-30T23:46:41.153Z,49.33
2022-11-30T23:49:26.826Z,45.30
2022-11-30T23:52:14.285Z,38.13
2022-11-30T23:54:59.620Z,41.40
2022-11-30T23:57:50.153Z,32.77
